createdAt,value
2022-09-27T00:01:25.241Z,19.68
2022-09-27T00:03:57.340Z,19.76
2022-09-27T00:06:29.134Z,19.94
2022-09-27T00:08:58.916Z,19.94
2022-09-27T00:11:30.917Z,19.94
2022-09-27T00:14:01.273Z,20.05
2022-09-27T00:16:33.134Z,19.79
2022-09-27T00:19:04.313Z,19.79
2022-09-27T00:21:33.683Z,19.80
2022-09-27T00:24:02.981Z,19.80
2022-09-27T00:26:32.338Z,19.62
2022-09-27T00:29:01.401Z,19.62
2022-09-27T00:31:32.593Z,19.74
2022-09-27T00:34:03.942Z,19.74
2022-09-27T00:36:34.345Z,19.89
2022-09-27T00:39:03.893Z,19.97
2022-09-27T00:41:35.385Z,19.81
2022-09-27T00:44:07.371Z,20.07
2022-09-27T00:46:45.292Z,19.93
2022-09-27T00:49:20.074Z,20.13
2022-09-27T00:51:52.007Z,20.03
2022-09-27T00:54:23.927Z,20.41
2022-09-27T00:56:54.288Z,20.41
2022-09-27T00:59:32.138Z,20.02
2022-09-27T01:02:01.482Z,20.23
2022-09-27T01:04:32.509Z,20.02
2022-09-27T01:07:01.619Z,20.27
2022-09-27T01:09:31.325Z,20.21
2022-09-27T01:12:18.276Z,20.22
2022-09-27T01:14:55.968Z,20.27
2022-09-27T01:17:48.987Z,20.27
2022-09-27T01:20:41.597Z,20.31
2022-09-27T01:23:19.651Z,20.46
2022-09-27T01:26:09.812Z,20.18
2022-09-27T01:28:44.549Z,20.30
2022-09-27T01:31:22.633Z,20.41
2022-09-27T01:34:00.799Z,20.41
2022-09-27T01:37:03.561Z,20.58
2022-09-27T01:39:55.126Z,20.58
2022-09-27T01:42:27.494Z,20.08
2022-09-27T01:45:08.908Z,20.28
2022-09-27T01:47:40.846Z,20.19
2022-09-27T01:50:12.904Z,20.15
2022-09-27T01:52:47.469Z,20.65
2022-09-27T01:55:19.783Z,20.51
2022-09-27T01:57:57.626Z,20.30
2022-09-27T02:00:26.960Z,20.06
2022-09-27T02:03:01.622Z,20.21
2022-09-27T02:05:39.262Z,20.35
2022-09-27T02:08:11.283Z,20.35
2022-09-27T02:10:43.857Z,20.37
2022-09-27T02:13:15.838Z,20.45
2022-09-27T02:16:11.184Z,20.36
2022-09-27T02:18:54.910Z,20.16
2022-09-27T02:21:26.860Z,20.35
2022-09-27T02:24:00.230Z,20.19
2022-09-27T02:26:42.449Z,19.84
2022-09-27T02:29:23.586Z,20.27
2022-09-27T02:31:52.859Z,20.33
2022-09-27T02:34:24.819Z,19.98
2022-09-27T02:36:57.174Z,20.18
2022-09-27T02:39:27.201Z,19.90
2022-09-27T02:41:58.597Z,19.98
2022-09-27T02:44:30.061Z,19.98
2022-09-27T02:47:12.891Z,20.23
2022-09-27T02:50:00.010Z,20.32
2022-09-27T02:52:35.092Z,20.14
2022-09-27T02:55:10.300Z,20.08
2022-09-27T02:57:50.940Z,20.39
2022-09-27T03:00:22.970Z,20.39
2022-09-27T03:03:11.666Z,20.13
2022-09-27T03:05:49.748Z,20.52
2022-09-27T03:08:20.356Z,20.52
2022-09-27T03:10:49.450Z,20.05
2022-09-27T03:13:18.560Z,20.19
2022-09-27T03:15:47.635Z,20.16
2022-09-27T03:18:16.700Z,19.84
2022-09-27T03:20:45.808Z,20.14
2022-09-27T03:23:14.854Z,20.37
2022-09-27T03:25:43.904Z,20.05
2022-09-27T03:28:12.966Z,20.17
2022-09-27T03:30:42.854Z,20.17
2022-09-27T03:33:11.929Z,20.19
2022-09-27T03:35:43.312Z,20.21
2022-09-27T03:38:12.888Z,19.96
2022-09-27T03:40:42.335Z,19.82
2022-09-27T03:43:11.565Z,19.93
2022-09-27T03:45:40.724Z,20.07
2022-09-27T03:48:09.822Z,20.17
2022-09-27T03:50:39.089Z,20.10
2022-09-27T03:53:08.144Z,19.84
2022-09-27T03:55:37.541Z,19.92
2022-09-27T03:58:06.582Z,20.02
2022-09-27T04:00:36.455Z,19.70
2022-09-27T04:03:05.623Z,20.08
2022-09-27T04:05:34.963Z,20.07
2022-09-27T04:08:06.023Z,19.89
2022-09-27T04:10:37.052Z,19.85
2022-09-27T04:13:07.199Z,19.99
2022-09-27T04:15:36.453Z,19.77
2022-09-27T04:18:05.709Z,19.76
2022-09-27T04:20:36.208Z,20.06
2022-09-27T04:23:05.684Z,20.06
2022-09-27T04:25:35.087Z,20.09
2022-09-27T04:28:06.024Z,20.09
2022-09-27T04:30:35.143Z,19.83
2022-09-27T04:33:04.354Z,19.83
2022-09-27T04:35:51.497Z,20.26
2022-09-27T04:38:22.181Z,20.18
2022-09-27T04:40:52.019Z,20.18
2022-09-27T04:43:21.099Z,20.18
2022-09-27T04:45:50.277Z,20.10
2022-09-27T04:48:19.488Z,20.06
2022-09-27T04:50:48.544Z,19.97
2022-09-27T04:53:17.968Z,20.02
2022-09-27T04:55:49.784Z,19.89
2022-09-27T04:58:18.857Z,19.89
2022-09-27T05:00:49.464Z,20.19
2022-09-27T05:03:19.425Z,20.09
2022-09-27T05:05:48.571Z,19.95
2022-09-27T05:08:17.682Z,19.98
2022-09-27T05:10:46.828Z,19.98
2022-09-27T05:13:16.596Z,20.32
2022-09-27T05:15:46.435Z,19.96
2022-09-27T05:18:15.717Z,19.96
2022-09-27T05:20:45.262Z,20.27
2022-09-27T05:23:14.424Z,20.01
2022-09-27T05:25:43.516Z,19.81
2022-09-27T05:28:12.778Z,20.11
2022-09-27T05:30:41.949Z,19.57
2022-09-27T05:33:11.026Z,19.77
2022-09-27T05:35:45.402Z,20.22
2022-09-27T05:38:12.461Z,20.19
2022-09-27T05:40:43.292Z,20.19
2022-09-27T05:43:12.478Z,19.87
2022-09-27T05:45:41.994Z,19.88
2022-09-27T05:48:12.861Z,19.88
2022-09-27T05:50:42.431Z,20.47
2022-09-27T05:53:13.416Z,20.25
2022-09-27T05:55:43.342Z,20.56
2022-09-27T05:58:14.139Z,20.56
2022-09-27T06:00:43.694Z,20.06
2022-09-27T06:03:14.805Z,20.06
2022-09-27T06:05:49.132Z,20.30
2022-09-27T06:08:16.442Z,20.41
2022-09-27T06:10:45.519Z,20.88
2022-09-27T06:13:16.705Z,20.53
2022-09-27T06:15:47.565Z,20.46
2022-09-27T06:18:18.412Z,20.57
2022-09-27T06:20:47.935Z,20.57
2022-09-27T06:23:20.154Z,20.76
2022-09-27T06:25:50.464Z,20.76
2022-09-27T06:28:20.545Z,20.88
2022-09-27T06:30:51.475Z,20.88
2022-09-27T06:33:21.898Z,20.95
2022-09-27T06:35:50.964Z,21.10
2022-09-27T06:38:21.731Z,21.01
2022-09-27T06:40:51.665Z,20.68
2022-09-27T06:43:22.223Z,20.84
2022-09-27T06:45:51.402Z,21.02
2022-09-27T06:48:20.853Z,20.75
2022-09-27T06:50:49.921Z,20.83
2022-09-27T06:53:19.011Z,20.50
2022-09-27T06:55:48.107Z,20.50
2022-09-27T06:58:35.589Z,20.59
2022-09-27T07:01:05.167Z,20.90
2022-09-27T07:03:40.805Z,20.80
2022-09-27T07:06:08.026Z,21.16
2022-09-27T07:08:37.095Z,21.25
2022-09-27T07:11:08.616Z,21.08
2022-09-27T07:13:39.274Z,21.15
2022-09-27T07:16:08.952Z,21.23
2022-09-27T07:18:38.062Z,21.21
2022-09-27T07:21:08.997Z,21.09
2022-09-27T07:23:38.647Z,20.98
2022-09-27T07:26:08.674Z,20.71
2022-09-27T07:28:38.132Z,20.71
2022-09-27T07:31:07.550Z,21.02
2022-09-27T07:33:39.919Z,20.86
2022-09-27T07:36:12.035Z,21.03
2022-09-27T07:38:41.194Z,21.03
2022-09-27T07:41:14.233Z,21.73
2022-09-27T07:43:47.231Z,23.02
2022-09-27T07:46:16.382Z,23.02
2022-09-27T07:48:46.804Z,23.11
2022-09-27T07:51:15.882Z,22.64
2022-09-27T07:53:44.927Z,22.64
2022-09-27T07:56:13.992Z,22.81
2022-09-27T07:58:43.438Z,22.57
2022-09-27T08:01:12.737Z,22.37
2022-09-27T08:03:41.928Z,22.37
2022-09-27T08:06:11.015Z,22.90
2022-09-27T08:08:41.440Z,22.99
2022-09-27T08:11:15.870Z,22.74
2022-09-27T08:13:45.599Z,22.30
2022-09-27T08:16:14.715Z,22.38
2022-09-27T08:18:43.886Z,22.38
2022-09-27T08:21:12.983Z,22.59
2022-09-27T08:23:43.028Z,22.59
2022-09-27T08:26:12.061Z,21.99
2022-09-27T08:28:41.382Z,21.99
2022-09-27T08:31:10.405Z,21.90
2022-09-27T08:33:41.610Z,21.90
2022-09-27T08:36:14.563Z,21.63
2022-09-27T08:38:43.687Z,21.53
2022-09-27T08:41:24.561Z,21.72
2022-09-27T08:44:05.246Z,21.87
2022-09-27T08:46:43.357Z,22.15
2022-09-27T08:49:25.102Z,21.91
2022-09-27T08:51:56.293Z,21.91
2022-09-27T08:54:30.947Z,21.73
2022-09-27T08:57:08.689Z,21.92
2022-09-27T08:59:40.628Z,21.89
2022-09-27T09:02:21.574Z,21.69
2022-09-27T09:04:53.449Z,21.69
2022-09-27T09:07:48.499Z,21.89
2022-09-27T09:10:33.586Z,21.93
2022-09-27T09:13:05.557Z,21.61
2022-09-27T09:16:06.169Z,21.17
2022-09-27T09:18:40.905Z,21.17
2022-09-27T09:21:30.629Z,21.07
2022-09-27T09:24:17.512Z,21.26
2022-09-27T09:27:21.045Z,21.52
2022-09-27T09:29:58.344Z,21.52
2022-09-27T09:32:36.393Z,21.58
2022-09-27T09:35:11.541Z,21.91
2022-09-27T09:37:49.252Z,21.35
2022-09-27T09:40:45.684Z,21.71
2022-09-27T09:43:23.837Z,22.13
2022-09-27T09:45:55.821Z,22.41
2022-09-27T09:48:50.003Z,22.41
2022-09-27T09:51:24.614Z,22.20
2022-09-27T09:53:59.559Z,22.32
2022-09-27T09:56:34.223Z,22.62
2022-09-27T09:59:06.202Z,22.10
2022-09-27T10:01:44.139Z,22.15
2022-09-27T10:04:25.067Z,22.15
2022-09-27T10:06:55.930Z,22.01
2022-09-27T10:09:27.849Z,22.01
2022-09-27T10:11:57.192Z,22.10
2022-09-27T10:14:28.140Z,22.10
2022-09-27T10:17:02.821Z,22.19
2022-09-27T10:19:34.522Z,22.85
2022-09-27T10:22:06.753Z,22.85
2022-09-27T10:24:41.244Z,22.43
2022-09-27T10:27:10.297Z,22.22
2022-09-27T10:29:39.936Z,22.22
2022-09-27T10:32:11.908Z,22.20
2022-09-27T10:34:43.273Z,22.33
2022-09-27T10:37:17.866Z,22.35
2022-09-27T10:39:48.813Z,21.77
2022-09-27T10:42:36.308Z,21.90
2022-09-27T10:45:31.126Z,22.19
2022-09-27T10:48:03.109Z,22.64
2022-09-27T10:50:53.752Z,22.64
2022-09-27T10:53:15.652Z,22.51
2022-09-27T10:55:46.755Z,22.28
2022-09-27T10:58:33.378Z,22.28
2022-09-27T11:01:05.523Z,22.22
2022-09-27T11:03:37.467Z,22.22
2022-09-27T11:06:28.112Z,22.52
2022-09-27T11:08:59.725Z,21.91
2022-09-27T11:11:30.089Z,21.96
2022-09-27T11:14:03.617Z,22.44
2022-09-27T11:16:53.757Z,22.36
2022-09-27T11:19:43.928Z,22.36
2022-09-27T11:22:21.576Z,22.38
2022-09-27T11:25:05.644Z,22.38
2022-09-27T11:27:40.796Z,22.02
2022-09-27T11:30:24.935Z,22.02
2022-09-27T11:33:11.918Z,22.29
2022-09-27T11:35:52.661Z,22.20
2022-09-27T11:38:52.263Z,22.00
2022-09-27T11:41:12.559Z,22.00
2022-09-27T11:43:50.221Z,22.32
2022-09-27T11:46:38.722Z,22.28
2022-09-27T11:49:13.479Z,22.23
2022-09-27T11:52:08.402Z,22.78
2022-09-27T11:54:46.167Z,22.78
2022-09-27T11:57:31.944Z,22.47
2022-09-27T12:00:21.885Z,22.40
2022-09-27T12:03:14.724Z,22.40
2022-09-27T12:05:58.723Z,22.62
2022-09-27T12:08:44.752Z,22.62
2022-09-27T12:11:22.528Z,22.46
2022-09-27T12:13:54.476Z,22.26
2022-09-27T12:16:26.573Z,22.27
2022-09-27T12:18:57.200Z,22.27
2022-09-27T12:21:28.367Z,22.27
2022-09-27T12:23:59.048Z,22.27
2022-09-27T12:26:43.135Z,22.43
2022-09-27T12:29:15.134Z,22.17
2022-09-27T12:32:02.497Z,21.85
2022-09-27T12:34:43.210Z,22.05
2022-09-27T12:37:21.179Z,22.23
2022-09-27T12:40:01.676Z,22.12
2022-09-27T12:45:16.192Z,22.07
2022-09-27T12:47:57.087Z,22.22
2022-09-27T12:50:31.724Z,22.53
2022-09-27T12:53:04.706Z,22.54
2022-09-27T12:55:37.451Z,22.20
2022-09-27T12:58:24.467Z,22.20
2022-09-27T13:00:59.294Z,22.28
2022-09-27T13:03:49.261Z,22.45
2022-09-27T13:06:42.487Z,22.45
2022-09-27T13:09:23.463Z,22.33
2022-09-27T13:12:01.614Z,22.43
2022-09-27T13:14:53.898Z,22.44
2022-09-27T13:17:47.307Z,22.44
2022-09-27T13:20:34.052Z,22.41
2022-09-27T13:23:21.099Z,22.35
2022-09-27T13:26:00.338Z,22.58
2022-09-27T13:28:38.597Z,22.29
2022-09-27T13:31:12.896Z,22.72
2022-09-27T13:33:52.012Z,22.72
2022-09-27T13:36:33.080Z,22.58
2022-09-27T13:39:09.776Z,22.27
2022-09-27T13:41:51.864Z,22.53
2022-09-27T13:44:51.383Z,22.78
2022-09-27T13:47:36.988Z,22.44
2022-09-27T13:50:27.158Z,22.79
2022-09-27T13:53:06.401Z,22.79
2022-09-27T13:55:49.665Z,22.49
2022-09-27T13:58:33.019Z,22.56
2022-09-27T14:01:04.576Z,22.88
2022-09-27T14:03:56.513Z,22.55
2022-09-27T14:06:31.573Z,22.42
2022-09-27T14:09:06.547Z,22.42
2022-09-27T14:11:41.634Z,22.87
2022-09-27T14:14:16.498Z,22.62
2022-09-27T14:16:48.044Z,22.55
2022-09-27T14:19:19.966Z,22.78
2022-09-27T14:22:09.964Z,22.78
2022-09-27T14:24:41.854Z,22.67
2022-09-27T14:27:17.682Z,22.46
2022-09-27T14:29:49.608Z,22.05
2022-09-27T14:32:27.625Z,22.36
2022-09-27T14:35:35.306Z,22.19
2022-09-27T14:38:32.905Z,21.98
2022-09-27T14:40:48.349Z,21.99
2022-09-27T14:43:22.206Z,22.06
2022-09-27T14:45:54.707Z,22.06
2022-09-27T14:48:32.669Z,21.80
2022-09-27T14:51:13.837Z,21.80
2022-09-27T14:53:48.390Z,21.53
2022-09-27T14:56:20.288Z,21.43
2022-09-27T14:58:51.345Z,21.03
2022-09-27T15:01:21.684Z,21.03
2022-09-27T15:03:52.805Z,21.05
2022-09-27T15:06:22.631Z,21.07
2022-09-27T15:08:52.540Z,20.98
2022-09-27T15:11:22.295Z,20.92
2022-09-27T15:13:53.758Z,21.01
2022-09-27T15:16:24.872Z,21.02
2022-09-27T15:19:06.484Z,21.02
2022-09-27T15:21:39.018Z,21.30
2022-09-27T15:24:09.464Z,21.30
2022-09-27T15:26:47.841Z,20.95
2022-09-27T15:29:22.605Z,21.46
2022-09-27T15:32:06.326Z,21.21
2022-09-27T15:34:37.381Z,21.28
2022-09-27T15:37:07.967Z,21.28
2022-09-27T15:39:41.466Z,20.92
2022-09-27T15:42:20.431Z,21.07
2022-09-27T15:44:56.091Z,21.20
2022-09-27T15:47:38.992Z,21.05
2022-09-27T15:50:30.730Z,20.81
2022-09-27T15:52:59.888Z,20.77
2022-09-27T15:55:30.736Z,20.59
2022-09-27T15:58:02.755Z,20.76
2022-09-27T16:00:32.427Z,21.01
2022-09-27T16:03:01.409Z,21.04
2022-09-27T16:05:32.655Z,20.97
2022-09-27T16:08:01.920Z,20.63
2022-09-27T16:10:33.798Z,21.09
2022-09-27T16:13:02.840Z,20.92
2022-09-27T16:15:32.412Z,20.58
2022-09-27T16:18:01.491Z,20.58
2022-09-27T16:20:32.306Z,20.37
2022-09-27T16:23:01.444Z,20.37
2022-09-27T16:25:30.467Z,20.55
2022-09-27T16:28:01.372Z,20.63
2022-09-27T16:30:31.421Z,20.70
2022-09-27T16:33:00.753Z,20.95
2022-09-27T16:35:29.739Z,20.81
2022-09-27T16:37:58.842Z,20.76
2022-09-27T16:40:28.457Z,20.76
2022-09-27T16:42:57.526Z,20.76
2022-09-27T16:45:28.300Z,20.99
2022-09-27T16:47:57.311Z,20.99
2022-09-27T16:50:44.263Z,20.81
2022-09-27T16:53:13.817Z,20.99
2022-09-27T16:55:43.116Z,20.69
2022-09-27T16:58:12.168Z,20.44
2022-09-27T17:00:42.262Z,20.60
2022-09-27T17:03:11.567Z,20.72
2022-09-27T17:05:40.556Z,20.51
2022-09-27T17:08:09.809Z,20.45
2022-09-27T17:10:39.159Z,20.58
2022-09-27T17:13:08.228Z,20.58
2022-09-27T17:15:39.709Z,20.57
2022-09-27T17:18:08.672Z,20.57
2022-09-27T17:20:37.764Z,20.28
2022-09-27T17:23:07.079Z,20.49
2022-09-27T17:25:36.327Z,20.45
2022-09-27T17:28:05.415Z,20.34
2022-09-27T17:30:35.353Z,20.36
2022-09-27T17:33:04.685Z,20.02
2022-09-27T17:35:33.808Z,20.13
2022-09-27T17:38:02.829Z,20.24
2022-09-27T17:40:32.205Z,20.38
2022-09-27T17:43:01.458Z,20.23
2022-09-27T17:45:30.532Z,20.26
2022-09-27T17:48:18.079Z,20.40
2022-09-27T17:50:50.453Z,20.30
2022-09-27T17:53:19.647Z,20.36
2022-09-27T17:55:48.617Z,20.09
2022-09-27T17:58:17.734Z,20.07
2022-09-27T18:00:46.898Z,20.14
2022-09-27T18:03:16.028Z,20.27
2022-09-27T18:05:45.046Z,20.18
2022-09-27T18:08:14.130Z,20.25
2022-09-27T18:10:43.827Z,20.32
2022-09-27T18:13:13.042Z,20.26
2022-09-27T18:15:43.559Z,20.15
2022-09-27T18:18:12.494Z,20.27
2022-09-27T18:20:41.598Z,20.11
2022-09-27T18:23:10.578Z,20.26
2022-09-27T18:25:40.955Z,19.98
2022-09-27T18:28:10.512Z,20.01
2022-09-27T18:30:39.531Z,20.15
2022-09-27T18:33:08.764Z,20.11
2022-09-27T18:35:37.686Z,20.17
2022-09-27T18:38:06.974Z,20.24
2022-09-27T18:40:55.012Z,19.93
2022-09-27T18:43:07.979Z,19.97
2022-09-27T18:45:38.520Z,20.11
2022-09-27T18:48:07.632Z,19.79
2022-09-27T18:50:38.029Z,20.03
2022-09-27T18:53:08.723Z,19.85
2022-09-27T18:55:41.791Z,19.85
2022-09-27T18:58:12.639Z,20.04
2022-09-27T19:00:41.763Z,20.08
2022-09-27T19:03:16.428Z,19.99
2022-09-27T19:05:45.741Z,20.03
2022-09-27T19:08:14.862Z,19.82
2022-09-27T19:10:43.927Z,20.14
2022-09-27T19:13:12.951Z,20.32
2022-09-27T19:15:42.072Z,20.11
2022-09-27T19:18:11.421Z,19.90
2022-09-27T19:20:40.459Z,20.15
2022-09-27T19:23:09.704Z,20.16
2022-09-27T19:25:43.607Z,20.09
2022-09-27T19:28:12.833Z,20.05
2022-09-27T19:30:43.125Z,20.05
2022-09-27T19:33:12.978Z,20.22
2022-09-27T19:35:42.071Z,20.06
2022-09-27T19:38:11.051Z,19.98
2022-09-27T19:40:40.037Z,19.93
2022-09-27T19:43:09.083Z,19.81
2022-09-27T19:45:38.191Z,20.06
2022-09-27T19:48:07.281Z,20.11
2022-09-27T19:50:36.308Z,20.11
2022-09-27T19:53:07.061Z,19.91
2022-09-27T19:55:36.184Z,19.91
2022-09-27T19:58:05.224Z,20.08
2022-09-27T20:00:34.316Z,19.99
2022-09-27T20:03:03.374Z,19.99
2022-09-27T20:05:32.439Z,20.14
2022-09-27T20:08:02.012Z,19.77
2022-09-27T20:10:31.136Z,19.69
2022-09-27T20:13:00.160Z,19.70
2022-09-27T20:15:29.109Z,19.58
2022-09-27T20:17:58.360Z,20.00
2022-09-27T20:20:27.446Z,19.97
2022-09-27T20:22:56.450Z,20.04
2022-09-27T20:25:26.641Z,19.92
2022-09-27T20:27:57.623Z,19.97
2022-09-27T20:30:28.273Z,19.88
2022-09-27T20:33:14.963Z,20.15
2022-09-27T20:35:54.506Z,20.49
2022-09-27T20:38:23.489Z,20.63
2022-09-27T20:40:57.725Z,20.45
2022-09-27T20:43:26.686Z,20.39
2022-09-27T20:45:58.657Z,20.68
2022-09-27T20:48:27.684Z,20.30
2022-09-27T20:51:04.490Z,20.30
2022-09-27T20:53:32.104Z,20.31
2022-09-27T20:56:04.635Z,20.39
2022-09-27T20:58:34.227Z,20.30
2022-09-27T21:01:07.493Z,20.17
2022-09-27T21:03:36.564Z,20.17
2022-09-27T21:06:06.323Z,20.30
2022-09-27T21:08:35.789Z,20.26
2022-09-27T21:11:10.670Z,20.54
2022-09-27T21:13:41.021Z,20.62
2022-09-27T21:16:14.344Z,20.48
2022-09-27T21:18:44.346Z,20.76
2022-09-27T21:21:15.467Z,20.56
2022-09-27T21:23:46.234Z,20.54
2022-09-27T21:26:21.510Z,20.60
2022-09-27T21:28:53.094Z,20.75
2022-09-27T21:31:24.658Z,20.66
2022-09-27T21:33:57.923Z,20.78
2022-09-27T21:36:29.813Z,20.76
2022-09-27T21:38:59.694Z,20.60
2022-09-27T21:41:29.121Z,20.60
2022-09-27T21:43:58.141Z,20.38
2022-09-27T21:46:29.113Z,20.53
2022-09-27T21:49:02.072Z,20.45
2022-09-27T21:51:36.988Z,20.45
2022-09-27T21:54:09.096Z,20.30
2022-09-27T21:56:40.387Z,20.43
2022-09-27T21:59:12.492Z,20.47
2022-09-27T22:01:43.165Z,20.56
2022-09-27T22:04:13.060Z,20.56
2022-09-27T22:06:42.766Z,20.58
2022-09-27T22:09:15.130Z,20.58
2022-09-27T22:11:46.521Z,20.62
2022-09-27T22:14:18.338Z,20.62
2022-09-27T22:16:48.184Z,20.44
2022-09-27T22:19:18.308Z,20.43
2022-09-27T22:21:47.775Z,20.34
2022-09-27T22:24:19.008Z,20.81
2022-09-27T22:26:51.039Z,20.50
2022-09-27T22:29:20.291Z,20.50
2022-09-27T22:31:49.874Z,20.27
2022-09-27T22:34:21.609Z,20.59
2022-09-27T22:36:50.659Z,20.64
2022-09-27T22:39:19.627Z,20.64
2022-09-27T22:41:48.606Z,20.31
2022-09-27T22:44:17.768Z,20.31
2022-09-27T22:46:46.866Z,20.77
2022-09-27T22:49:16.219Z,20.77
2022-09-27T22:51:45.290Z,20.55
2022-09-27T22:54:17.249Z,20.55
2022-09-27T22:56:46.251Z,20.82
2022-09-27T22:59:15.325Z,20.82
2022-09-27T23:01:44.511Z,20.89
2022-09-27T23:04:14.325Z,20.89
2022-09-27T23:06:43.675Z,20.83
2022-09-27T23:09:13.106Z,20.63
2022-09-27T23:11:42.040Z,20.63
2022-09-27T23:14:12.575Z,20.67
2022-09-27T23:16:41.655Z,20.78
2022-09-27T23:19:10.778Z,20.69
2022-09-27T23:21:39.755Z,20.69
2022-09-27T23:24:10.488Z,20.69
2022-09-27T23:26:39.546Z,20.57
2022-09-27T23:29:10.201Z,20.96
2022-09-27T23:31:39.193Z,20.74
2022-09-27T23:34:08.199Z,20.95
2022-09-27T23:36:37.328Z,20.95
2022-09-27T23:39:06.297Z,20.79
2022-09-27T23:41:35.275Z,21.02
2022-09-27T23:44:04.355Z,21.09
2022-09-27T23:46:33.429Z,21.28
2022-09-27T23:49:02.436Z,21.23
2022-09-27T23:51:31.597Z,21.23
2022-09-27T23:54:00.839Z,21.24
2022-09-27T23:56:29.799Z,21.11
2022-09-27T23:59:01.288Z,21.11
